sensor_id;sensor_type;location;lat;lon;timestamp;P1;durP1;ratioP1;P2;durP2;ratioP2
1691;SDS011;843;52.054;8.552;2022-12-08T00:01:15;26.50;;;19.43;;
1691;SDS011;843;52.054;8.552;2022-12-08T00:03:42;22.73;;;16.90;;
1691;SDS011;843;52.054;8.552;2022-12-08T00:06:11;22.30;;;16.33;;
1691;SDS011;843;52.054;8.552;2022-12-08T00:09:01;20.20;;;15.53;;
1691;SDS011;843;52.054;8.552;2022-12-08T00:11:45;26.70;;;18.30;;
1691;SDS011;843;52.054;8.552;2022-12-08T00:14:12;23.93;;;19.87;;
1691;SDS011;843;52.054;8.552;2022-12-08T00:16:40;33.70;;;19.60;;
1691;SDS011;843;52.054;8.552;2022-12-08T00:19:07;31.37;;;21.03;;
1691;SDS011;843;52.054;8.552;2022-12-08T00:21:33;29.13;;;18.47;;
1691;SDS011;843;52.054;8.552;2022-12-08T00:24:00;24.63;;;18.10;;
1691;SDS011;843;52.054;8.552;2022-12-08T00:26:26;30.83;;;19.57;;
1691;SDS011;843;52.054;8.552;2022-12-08T00:28:53;24.50;;;19.77;;
1691;SDS011;843;52.054;8.552;2022-12-08T00:31:20;27.03;;;19.43;;
1691;SDS011;843;52.054;8.552;2022-12-08T00:33:48;23.63;;;17.43;;
1691;SDS011;843;52.054;8.552;2022-12-08T00:36:14;27.30;;;18.00;;
1691;SDS011;843;52.054;8.552;2022-12-08T00:38:41;24.10;;;18.80;;
1691;SDS011;843;52.054;8.552;2022-12-08T00:41:10;25.13;;;19.37;;
1691;SDS011;843;52.054;8.552;2022-12-08T00:43:38;27.50;;;20.17;;
1691;SDS011;843;52.054;8.552;2022-12-08T00:46:05;27.13;;;19.20;;
1691;SDS011;843;52.054;8.552;2022-12-08T00:48:31;27.20;;;18.23;;
1691;SDS011;843;52.054;8.552;2022-12-08T00:50:59;27.47;;;20.23;;
1691;SDS011;843;52.054;8.552;2022-12-08T00:53:26;29.53;;;20.03;;
1691;SDS011;843;52.054;8.552;2022-12-08T00:55:53;30.13;;;19.87;;
1691;SDS011;843;52.054;8.552;2022-12-08T00:58:19;28.03;;;19.40;;
1691;SDS011;843;52.054;8.552;2022-12-08T01:00:46;27.10;;;19.43;;
1691;SDS011;843;52.054;8.552;2022-12-08T01:03:12;30.33;;;21.33;;
1691;SDS011;843;52.054;8.552;2022-12-08T01:05:39;28.47;;;20.20;;
1691;SDS011;843;52.054;8.552;2022-12-08T01:08:07;31.93;;;20.60;;
1691;SDS011;843;52.054;8.552;2022-12-08T01:10:34;28.40;;;20.77;;
1691;SDS011;843;52.054;8.552;2022-12-08T01:13:01;33.40;;;22.60;;
1691;SDS011;843;52.054;8.552;2022-12-08T01:15:27;30.03;;;20.40;;
1691;SDS011;843;52.054;8.552;2022-12-08T01:17:54;32.33;;;20.80;;
1691;SDS011;843;52.054;8.552;2022-12-08T01:20:20;28.70;;;20.80;;
1691;SDS011;843;52.054;8.552;2022-12-08T01:22:47;32.93;;;22.57;;
1691;SDS011;843;52.054;8.552;2022-12-08T01:25:15;32.57;;;22.87;;
1691;SDS011;843;52.054;8.552;2022-12-08T01:27:42;28.20;;;20.20;;
1691;SDS011;843;52.054;8.552;2022-12-08T01:30:09;34.47;;;24.60;;
1691;SDS011;843;52.054;8.552;2022-12-08T01:32:37;33.77;;;22.47;;
1691;SDS011;843;52.054;8.552;2022-12-08T01:35:04;31.67;;;21.73;;
1691;SDS011;843;52.054;8.552;2022-12-08T01:37:31;34.13;;;21.87;;
1691;SDS011;843;52.054;8.552;2022-12-08T01:39:57;31.00;;;22.17;;
1691;SDS011;843;52.054;8.552;2022-12-08T01:42:25;35.23;;;23.87;;
1691;SDS011;843;52.054;8.552;2022-12-08T01:44:53;29.77;;;22.83;;
1691;SDS011;843;52.054;8.552;2022-12-08T01:47:25;32.83;;;22.80;;
1691;SDS011;843;52.054;8.552;2022-12-08T01:49:55;40.17;;;22.13;;
1691;SDS011;843;52.054;8.552;2022-12-08T01:52:22;30.80;;;22.27;;
1691;SDS011;843;52.054;8.552;2022-12-08T01:54:52;33.00;;;24.10;;
1691;SDS011;843;52.054;8.552;2022-12-08T01:57:21;31.73;;;22.63;;
1691;SDS011;843;52.054;8.552;2022-12-08T01:59:51;35.43;;;22.40;;
1691;SDS011;843;52.054;8.552;2022-12-08T02:02:20;31.47;;;20.90;;
1691;SDS011;843;52.054;8.552;2022-12-08T02:04:46;29.40;;;21.43;;
1691;SDS011;843;52.054;8.552;2022-12-08T02:07:13;33.93;;;22.07;;
1691;SDS011;843;52.054;8.552;2022-12-08T02:09:43;34.60;;;22.83;;
1691;SDS011;843;52.054;8.552;2022-12-08T02:12:10;33.77;;;22.33;;
1691;SDS011;843;52.054;8.552;2022-12-08T02:14:37;34.87;;;21.03;;
1691;SDS011;843;52.054;8.552;2022-12-08T02:17:11;29.23;;;21.07;;
1691;SDS011;843;52.054;8.552;2022-12-08T02:22:45;27.70;;;20.13;;
1691;SDS011;843;52.054;8.552;2022-12-08T02:25:18;32.67;;;20.30;;
1691;SDS011;843;52.054;8.552;2022-12-08T02:27:51;31.50;;;23.23;;
1691;SDS011;843;52.054;8.552;2022-12-08T02:30:25;36.20;;;22.17;;
1691;SDS011;843;52.054;8.552;2022-12-08T02:36:14;28.00;;;20.80;;
1691;SDS011;843;52.054;8.552;2022-12-08T02:38:44;30.90;;;20.40;;
1691;SDS011;843;52.054;8.552;2022-12-08T02:41:19;26.07;;;18.60;;
1691;SDS011;843;52.054;8.552;2022-12-08T02:43:50;26.23;;;19.10;;
1691;SDS011;843;52.054;8.552;2022-12-08T02:46:21;25.83;;;21.07;;
1691;SDS011;843;52.054;8.552;2022-12-08T02:48:50;26.13;;;20.13;;
1691;SDS011;843;52.054;8.552;2022-12-08T02:51:18;25.00;;;19.77;;
1691;SDS011;843;52.054;8.552;2022-12-08T02:53:45;25.67;;;19.37;;
1691;SDS011;843;52.054;8.552;2022-12-08T02:56:15;24.40;;;20.17;;
1691;SDS011;843;52.054;8.552;2022-12-08T02:59:05;30.00;;;20.37;;
1691;SDS011;843;52.054;8.552;2022-12-08T03:01:43;30.57;;;21.00;;
1691;SDS011;843;52.054;8.552;2022-12-08T03:04:20;24.50;;;19.47;;
1691;SDS011;843;52.054;8.552;2022-12-08T03:06:51;24.87;;;18.67;;
1691;SDS011;843;52.054;8.552;2022-12-08T03:09:26;24.37;;;19.20;;
1691;SDS011;843;52.054;8.552;2022-12-08T03:12:00;25.10;;;19.40;;
1691;SDS011;843;52.054;8.552;2022-12-08T03:14:29;26.70;;;19.07;;
1691;SDS011;843;52.054;8.552;2022-12-08T03:16:56;24.37;;;18.77;;
1691;SDS011;843;52.054;8.552;2022-12-08T03:19:25;22.70;;;17.70;;
1691;SDS011;843;52.054;8.552;2022-12-08T03:21:54;22.40;;;17.07;;
1691;SDS011;843;52.054;8.552;2022-12-08T03:24:27;26.93;;;18.80;;
1691;SDS011;843;52.054;8.552;2022-12-08T03:26:55;26.13;;;19.17;;
1691;SDS011;843;52.054;8.552;2022-12-08T03:29:23;25.80;;;18.80;;
1691;SDS011;843;52.054;8.552;2022-12-08T03:31:51;23.60;;;17.50;;
1691;SDS011;843;52.054;8.552;2022-12-08T03:34:19;29.30;;;19.63;;
1691;SDS011;843;52.054;8.552;2022-12-08T03:36:47;22.83;;;19.30;;
1691;SDS011;843;52.054;8.552;2022-12-08T03:39:15;30.30;;;20.37;;
1691;SDS011;843;52.054;8.552;2022-12-08T03:41:42;25.43;;;18.30;;
1691;SDS011;843;52.054;8.552;2022-12-08T03:44:08;28.77;;;19.20;;
1691;SDS011;843;52.054;8.552;2022-12-08T03:46:35;24.70;;;19.30;;
1691;SDS011;843;52.054;8.552;2022-12-08T03:49:01;26.77;;;19.53;;
1691;SDS011;843;52.054;8.552;2022-12-08T03:51:28;26.07;;;20.97;;
1691;SDS011;843;52.054;8.552;2022-12-08T03:53:55;32.57;;;21.47;;
1691;SDS011;843;52.054;8.552;2022-12-08T03:56:24;29.23;;;20.80;;
1691;SDS011;843;52.054;8.552;2022-12-08T03:58:52;26.40;;;19.20;;
1691;SDS011;843;52.054;8.552;2022-12-08T04:01:19;28.13;;;21.10;;
1691;SDS011;843;52.054;8.552;2022-12-08T04:03:46;27.40;;;19.43;;
1691;SDS011;843;52.054;8.552;2022-12-08T04:06:13;29.47;;;20.90;;
1691;SDS011;843;52.054;8.552;2022-12-08T04:08:39;35.67;;;21.50;;
1691;SDS011;843;52.054;8.552;2022-12-08T04:11:06;27.27;;;19.93;;
1691;SDS011;843;52.054;8.552;2022-12-08T04:13:35;31.20;;;20.67;;
1691;SDS011;843;52.054;8.552;2022-12-08T04:16:02;26.33;;;20.93;;
1691;SDS011;843;52.054;8.552;2022-12-08T04:18:30;28.20;;;20.10;;
1691;SDS011;843;52.054;8.552;2022-12-08T04:20:56;32.40;;;21.17;;
1691;SDS011;843;52.054;8.552;2022-12-08T04:23:23;26.00;;;20.50;;
1691;SDS011;843;52.054;8.552;2022-12-08T04:25:50;31.93;;;21.00;;
1691;SDS011;843;52.054;8.552;2022-12-08T04:28:17;29.70;;;22.50;;
1691;SDS011;843;52.054;8.552;2022-12-08T04:30:46;24.13;;;20.20;;
1691;SDS011;843;52.054;8.552;2022-12-08T04:33:13;22.93;;;19.50;;
1691;SDS011;843;52.054;8.552;2022-12-08T04:35:39;27.40;;;21.67;;
1691;SDS011;843;52.054;8.552;2022-12-08T04:38:06;30.20;;;22.20;;
1691;SDS011;843;52.054;8.552;2022-12-08T04:40:32;30.80;;;22.27;;
1691;SDS011;843;52.054;8.552;2022-12-08T04:42:59;30.10;;;23.07;;
1691;SDS011;843;52.054;8.552;2022-12-08T04:45:26;33.10;;;23.00;;
1691;SDS011;843;52.054;8.552;2022-12-08T04:47:54;30.80;;;22.80;;
1691;SDS011;843;52.054;8.552;2022-12-08T04:50:20;36.60;;;22.50;;
1691;SDS011;843;52.054;8.552;2022-12-08T04:52:47;30.70;;;21.53;;
1691;SDS011;843;52.054;8.552;2022-12-08T04:55:14;35.23;;;25.40;;
1691;SDS011;843;52.054;8.552;2022-12-08T04:57:40;29.67;;;22.30;;
1691;SDS011;843;52.054;8.552;2022-12-08T05:00:07;32.67;;;22.60;;
1691;SDS011;843;52.054;8.552;2022-12-08T05:02:34;33.40;;;23.70;;
1691;SDS011;843;52.054;8.552;2022-12-08T05:05:03;34.80;;;23.53;;
1691;SDS011;843;52.054;8.552;2022-12-08T05:07:30;30.97;;;22.40;;
1691;SDS011;843;52.054;8.552;2022-12-08T05:09:56;30.57;;;23.30;;
1691;SDS011;843;52.054;8.552;2022-12-08T05:12:23;32.50;;;24.07;;
1691;SDS011;843;52.054;8.552;2022-12-08T05:14:50;30.70;;;23.10;;
1691;SDS011;843;52.054;8.552;2022-12-08T05:17:17;29.60;;;23.03;;
1691;SDS011;843;52.054;8.552;2022-12-08T05:19:44;29.33;;;22.03;;
1691;SDS011;843;52.054;8.552;2022-12-08T05:22:12;31.20;;;21.73;;
1691;SDS011;843;52.054;8.552;2022-12-08T05:24:38;27.33;;;20.90;;
1691;SDS011;843;52.054;8.552;2022-12-08T05:27:05;28.90;;;20.97;;
1691;SDS011;843;52.054;8.552;2022-12-08T05:29:31;27.80;;;21.00;;
1691;SDS011;843;52.054;8.552;2022-12-08T05:31:58;28.83;;;21.30;;
1691;SDS011;843;52.054;8.552;2022-12-08T05:34:25;27.97;;;20.30;;
1691;SDS011;843;52.054;8.552;2022-12-08T05:36:51;27.90;;;19.73;;
1691;SDS011;843;52.054;8.552;2022-12-08T05:39:19;27.90;;;18.43;;
1691;SDS011;843;52.054;8.552;2022-12-08T05:41:46;26.00;;;18.80;;
1691;SDS011;843;52.054;8.552;2022-12-08T05:44:13;25.80;;;19.17;;
1691;SDS011;843;52.054;8.552;2022-12-08T05:46:39;26.40;;;18.37;;
1691;SDS011;843;52.054;8.552;2022-12-08T05:49:06;29.90;;;19.70;;
1691;SDS011;843;52.054;8.552;2022-12-08T05:51:33;31.07;;;17.97;;
1691;SDS011;843;52.054;8.552;2022-12-08T05:53:59;27.87;;;18.40;;
1691;SDS011;843;52.054;8.552;2022-12-08T05:56:27;28.03;;;18.07;;
1691;SDS011;843;52.054;8.552;2022-12-08T05:58:54;27.57;;;17.90;;
1691;SDS011;843;52.054;8.552;2022-12-08T06:01:21;25.67;;;16.43;;
1691;SDS011;843;52.054;8.552;2022-12-08T06:03:49;25.03;;;17.27;;
1691;SDS011;843;52.054;8.552;2022-12-08T06:06:16;23.40;;;15.50;;
1691;SDS011;843;52.054;8.552;2022-12-08T06:08:43;21.97;;;16.33;;
1691;SDS011;843;52.054;8.552;2022-12-08T06:11:09;23.50;;;17.10;;
1691;SDS011;843;52.054;8.552;2022-12-08T06:13:44;24.43;;;16.77;;
1691;SDS011;843;52.054;8.552;2022-12-08T06:16:11;22.30;;;16.60;;
1691;SDS011;843;52.054;8.552;2022-12-08T06:18:37;25.57;;;17.33;;
1691;SDS011;843;52.054;8.552;2022-12-08T06:21:05;24.87;;;17.30;;
1691;SDS011;843;52.054;8.552;2022-12-08T06:23:32;28.30;;;18.13;;
1691;SDS011;843;52.054;8.552;2022-12-08T06:26:00;28.07;;;18.47;;
1691;SDS011;843;52.054;8.552;2022-12-08T06:28:27;25.70;;;19.00;;
1691;SDS011;843;52.054;8.552;2022-12-08T06:30:55;27.50;;;20.10;;
1691;SDS011;843;52.054;8.552;2022-12-08T06:33:23;30.53;;;19.40;;
1691;SDS011;843;52.054;8.552;2022-12-08T06:35:50;30.27;;;20.60;;
1691;SDS011;843;52.054;8.552;2022-12-08T06:38:17;30.83;;;22.23;;
1691;SDS011;843;52.054;8.552;2022-12-08T06:40:43;33.40;;;21.10;;
1691;SDS011;843;52.054;8.552;2022-12-08T06:43:10;32.17;;;19.60;;
1691;SDS011;843;52.054;8.552;2022-12-08T06:45:39;33.07;;;22.37;;
1691;SDS011;843;52.054;8.552;2022-12-08T06:48:07;30.77;;;20.50;;
1691;SDS011;843;52.054;8.552;2022-12-08T06:50:34;29.93;;;19.20;;
1691;SDS011;843;52.054;8.552;2022-12-08T06:53:00;33.43;;;20.30;;
1691;SDS011;843;52.054;8.552;2022-12-08T06:55:27;32.80;;;22.23;;
1691;SDS011;843;52.054;8.552;2022-12-08T06:57:54;29.67;;;20.93;;
1691;SDS011;843;52.054;8.552;2022-12-08T07:00:21;30.13;;;20.60;;
1691;SDS011;843;52.054;8.552;2022-12-08T07:02:47;29.53;;;20.40;;
1691;SDS011;843;52.054;8.552;2022-12-08T07:05:15;31.90;;;20.60;;
1691;SDS011;843;52.054;8.552;2022-12-08T07:07:42;30.07;;;20.70;;
1691;SDS011;843;52.054;8.552;2022-12-08T07:10:09;30.70;;;20.40;;
1691;SDS011;843;52.054;8.552;2022-12-08T07:12:36;29.77;;;19.87;;
1691;SDS011;843;52.054;8.552;2022-12-08T07:15:03;30.53;;;19.90;;
1691;SDS011;843;52.054;8.552;2022-12-08T07:17:30;34.87;;;20.83;;
1691;SDS011;843;52.054;8.552;2022-12-08T07:19:56;29.80;;;20.13;;
1691;SDS011;843;52.054;8.552;2022-12-08T07:22:24;29.13;;;17.93;;
1691;SDS011;843;52.054;8.552;2022-12-08T07:24:53;25.90;;;17.70;;
1691;SDS011;843;52.054;8.552;2022-12-08T07:27:21;28.37;;;17.80;;
1691;SDS011;843;52.054;8.552;2022-12-08T07:29:48;26.97;;;18.00;;
1691;SDS011;843;52.054;8.552;2022-12-08T07:32:15;24.00;;;16.47;;
1691;SDS011;843;52.054;8.552;2022-12-08T07:34:41;23.63;;;16.47;;
1691;SDS011;843;52.054;8.552;2022-12-08T07:37:08;23.23;;;15.67;;
1691;SDS011;843;52.054;8.552;2022-12-08T07:39:37;26.67;;;16.27;;
1691;SDS011;843;52.054;8.552;2022-12-08T07:42:03;21.57;;;15.30;;
1691;SDS011;843;52.054;8.552;2022-12-08T07:44:30;25.00;;;16.90;;
1691;SDS011;843;52.054;8.552;2022-12-08T07:46:56;27.07;;;16.93;;
1691;SDS011;843;52.054;8.552;2022-12-08T07:49:23;25.53;;;16.57;;
1691;SDS011;843;52.054;8.552;2022-12-08T07:51:50;26.93;;;17.17;;
1691;SDS011;843;52.054;8.552;2022-12-08T07:54:16;24.40;;;17.53;;
1691;SDS011;843;52.054;8.552;2022-12-08T07:56:44;24.60;;;17.07;;
1691;SDS011;843;52.054;8.552;2022-12-08T07:59:11;29.50;;;18.10;;
1691;SDS011;843;52.054;8.552;2022-12-08T08:01:38;30.50;;;17.23;;
1691;SDS011;843;52.054;8.552;2022-12-08T08:04:05;25.73;;;17.90;;
1691;SDS011;843;52.054;8.552;2022-12-08T08:06:32;23.23;;;16.80;;
1691;SDS011;843;52.054;8.552;2022-12-08T08:09:00;25.03;;;16.87;;
1691;SDS011;843;52.054;8.552;2022-12-08T08:11:26;22.53;;;15.37;;
1691;SDS011;843;52.054;8.552;2022-12-08T08:13:54;25.77;;;16.77;;
1691;SDS011;843;52.054;8.552;2022-12-08T08:16:21;22.77;;;15.53;;
1691;SDS011;843;52.054;8.552;2022-12-08T08:18:48;25.03;;;15.97;;
1691;SDS011;843;52.054;8.552;2022-12-08T08:21:15;29.50;;;17.70;;
1691;SDS011;843;52.054;8.552;2022-12-08T08:23:43;26.20;;;16.97;;
1691;SDS011;843;52.054;8.552;2022-12-08T08:26:10;22.90;;;15.30;;
1691;SDS011;843;52.054;8.552;2022-12-08T08:28:36;25.47;;;17.00;;
1691;SDS011;843;52.054;8.552;2022-12-08T08:31:05;26.27;;;15.83;;
1691;SDS011;843;52.054;8.552;2022-12-08T08:33:32;26.17;;;15.80;;
1691;SDS011;843;52.054;8.552;2022-12-08T08:35:59;27.47;;;15.87;;
1691;SDS011;843;52.054;8.552;2022-12-08T08:38:25;28.00;;;16.90;;
1691;SDS011;843;52.054;8.552;2022-12-08T08:40:53;25.07;;;16.20;;
1691;SDS011;843;52.054;8.552;2022-12-08T08:43:19;25.00;;;16.40;;
1691;SDS011;843;52.054;8.552;2022-12-08T08:45:56;31.30;;;18.80;;
1691;SDS011;843;52.054;8.552;2022-12-08T08:48:24;28.47;;;16.87;;
1691;SDS011;843;52.054;8.552;2022-12-08T08:50:51;25.00;;;15.03;;
1691;SDS011;843;52.054;8.552;2022-12-08T08:53:18;27.77;;;16.80;;
1691;SDS011;843;52.054;8.552;2022-12-08T08:55:45;20.67;;;15.13;;
1691;SDS011;843;52.054;8.552;2022-12-08T08:58:12;20.97;;;13.93;;
1691;SDS011;843;52.054;8.552;2022-12-08T09:00:38;22.93;;;14.97;;
1691;SDS011;843;52.054;8.552;2022-12-08T09:03:05;22.53;;;15.87;;
1691;SDS011;843;52.054;8.552;2022-12-08T09:05:33;18.60;;;13.03;;
1691;SDS011;843;52.054;8.552;2022-12-08T09:08:00;21.83;;;14.70;;
1691;SDS011;843;52.054;8.552;2022-12-08T09:10:26;19.87;;;13.30;;
1691;SDS011;843;52.054;8.552;2022-12-08T09:12:53;19.93;;;13.87;;
1691;SDS011;843;52.054;8.552;2022-12-08T09:15:20;18.23;;;12.60;;
1691;SDS011;843;52.054;8.552;2022-12-08T09:17:46;16.50;;;12.20;;
1691;SDS011;843;52.054;8.552;2022-12-08T09:20:14;17.97;;;13.00;;
1691;SDS011;843;52.054;8.552;2022-12-08T09:22:42;18.73;;;13.77;;
1691;SDS011;843;52.054;8.552;2022-12-08T09:25:08;17.33;;;12.43;;
1691;SDS011;843;52.054;8.552;2022-12-08T09:27:35;19.23;;;13.20;;
1691;SDS011;843;52.054;8.552;2022-12-08T09:30:02;21.70;;;15.00;;
1691;SDS011;843;52.054;8.552;2022-12-08T09:32:29;17.67;;;13.37;;
1691;SDS011;843;52.054;8.552;2022-12-08T09:34:56;15.33;;;12.10;;
1691;SDS011;843;52.054;8.552;2022-12-08T09:37:23;15.70;;;12.40;;
1691;SDS011;843;52.054;8.552;2022-12-08T09:39:51;17.53;;;12.67;;
1691;SDS011;843;52.054;8.552;2022-12-08T09:42:20;18.50;;;13.10;;
1691;SDS011;843;52.054;8.552;2022-12-08T09:44:53;20.17;;;12.50;;
1691;SDS011;843;52.054;8.552;2022-12-08T09:47:22;21.80;;;13.80;;
1691;SDS011;843;52.054;8.552;2022-12-08T09:49:53;18.63;;;13.50;;
1691;SDS011;843;52.054;8.552;2022-12-08T09:52:25;17.53;;;12.80;;
1691;SDS011;843;52.054;8.552;2022-12-08T09:55:03;16.20;;;11.90;;
1691;SDS011;843;52.054;8.552;2022-12-08T09:57:37;16.20;;;12.90;;
1691;SDS011;843;52.054;8.552;2022-12-08T10:00:05;14.90;;;11.90;;
1691;SDS011;843;52.054;8.552;2022-12-08T10:02:32;18.47;;;13.97;;
1691;SDS011;843;52.054;8.552;2022-12-08T10:05:02;16.50;;;12.33;;
1691;SDS011;843;52.054;8.552;2022-12-08T10:07:31;18.07;;;13.43;;
1691;SDS011;843;52.054;8.552;2022-12-08T10:10:05;18.07;;;12.97;;
1691;SDS011;843;52.054;8.552;2022-12-08T10:12:41;16.40;;;12.83;;
1691;SDS011;843;52.054;8.552;2022-12-08T10:15:17;15.90;;;12.70;;
1691;SDS011;843;52.054;8.552;2022-12-08T10:17:52;18.30;;;13.17;;
1691;SDS011;843;52.054;8.552;2022-12-08T10:20:23;19.07;;;13.80;;
1691;SDS011;843;52.054;8.552;2022-12-08T10:22:52;18.83;;;13.80;;
1691;SDS011;843;52.054;8.552;2022-12-08T10:25:26;16.50;;;13.70;;
1691;SDS011;843;52.054;8.552;2022-12-08T10:27:55;18.30;;;14.17;;
1691;SDS011;843;52.054;8.552;2022-12-08T10:30:23;19.20;;;14.17;;
1691;SDS011;843;52.054;8.552;2022-12-08T10:32:50;20.47;;;13.67;;
1691;SDS011;843;52.054;8.552;2022-12-08T10:35:19;17.57;;;13.40;;
1691;SDS011;843;52.054;8.552;2022-12-08T10:37:53;20.00;;;12.80;;
1691;SDS011;843;52.054;8.552;2022-12-08T10:40:21;19.70;;;12.60;;
1691;SDS011;843;52.054;8.552;2022-12-08T10:42:50;19.00;;;14.00;;
1691;SDS011;843;52.054;8.552;2022-12-08T10:45:20;15.40;;;12.47;;
1691;SDS011;843;52.054;8.552;2022-12-08T10:47:55;16.93;;;12.77;;
1691;SDS011;843;52.054;8.552;2022-12-08T10:50:27;15.57;;;12.03;;
1691;SDS011;843;52.054;8.552;2022-12-08T10:52:56;16.33;;;12.40;;
1691;SDS011;843;52.054;8.552;2022-12-08T10:55:26;15.00;;;10.93;;
1691;SDS011;843;52.054;8.552;2022-12-08T10:57:55;17.70;;;13.37;;
1691;SDS011;843;52.054;8.552;2022-12-08T11:00:25;16.43;;;12.90;;
1691;SDS011;843;52.054;8.552;2022-12-08T11:02:53;16.47;;;12.30;;
1691;SDS011;843;52.054;8.552;2022-12-08T11:05:23;14.67;;;11.90;;
1691;SDS011;843;52.054;8.552;2022-12-08T11:07:53;15.33;;;11.80;;
1691;SDS011;843;52.054;8.552;2022-12-08T11:10:24;15.43;;;11.20;;
1691;SDS011;843;52.054;8.552;2022-12-08T11:12:56;16.53;;;11.67;;
1691;SDS011;843;52.054;8.552;2022-12-08T11:15:25;20.93;;;16.97;;
1691;SDS011;843;52.054;8.552;2022-12-08T11:17:59;13.33;;;10.73;;
1691;SDS011;843;52.054;8.552;2022-12-08T11:20:27;20.50;;;15.27;;
1691;SDS011;843;52.054;8.552;2022-12-08T11:22:56;19.50;;;15.50;;
1691;SDS011;843;52.054;8.552;2022-12-08T11:25:23;13.97;;;11.63;;
1691;SDS011;843;52.054;8.552;2022-12-08T11:27:51;16.87;;;13.30;;
1691;SDS011;843;52.054;8.552;2022-12-08T11:30:20;24.50;;;17.37;;
1691;SDS011;843;52.054;8.552;2022-12-08T11:32:49;23.30;;;19.40;;
1691;SDS011;843;52.054;8.552;2022-12-08T11:35:20;15.47;;;12.03;;
1691;SDS011;843;52.054;8.552;2022-12-08T11:37:49;10.90;;;9.00;;
1691;SDS011;843;52.054;8.552;2022-12-08T11:40:16;12.27;;;9.60;;
1691;SDS011;843;52.054;8.552;2022-12-08T11:42:50;10.10;;;9.03;;
1691;SDS011;843;52.054;8.552;2022-12-08T11:45:23;10.90;;;9.23;;
1691;SDS011;843;52.054;8.552;2022-12-08T11:47:52;10.90;;;8.90;;
1691;SDS011;843;52.054;8.552;2022-12-08T11:50:25;15.13;;;10.30;;
1691;SDS011;843;52.054;8.552;2022-12-08T11:52:54;10.93;;;9.07;;
1691;SDS011;843;52.054;8.552;2022-12-08T11:55:27;9.73;;;8.33;;
1691;SDS011;843;52.054;8.552;2022-12-08T11:57:57;10.53;;;7.60;;
1691;SDS011;843;52.054;8.552;2022-12-08T12:00:31;9.73;;;8.00;;
1691;SDS011;843;52.054;8.552;2022-12-08T12:02:58;12.10;;;8.53;;
1691;SDS011;843;52.054;8.552;2022-12-08T12:05:29;8.23;;;7.03;;
1691;SDS011;843;52.054;8.552;2022-12-08T12:08:00;7.63;;;6.80;;
1691;SDS011;843;52.054;8.552;2022-12-08T12:10:51;8.40;;;7.13;;
1691;SDS011;843;52.054;8.552;2022-12-08T12:13:24;8.00;;;6.70;;
1691;SDS011;843;52.054;8.552;2022-12-08T12:16:07;7.20;;;6.50;;
1691;SDS011;843;52.054;8.552;2022-12-08T12:18:43;8.30;;;6.30;;
1691;SDS011;843;52.054;8.552;2022-12-08T12:21:11;8.63;;;7.20;;
1691;SDS011;843;52.054;8.552;2022-12-08T12:23:43;7.03;;;6.03;;
1691;SDS011;843;52.054;8.552;2022-12-08T12:26:15;7.13;;;5.87;;
1691;SDS011;843;52.054;8.552;2022-12-08T12:28:46;8.07;;;6.43;;
1691;SDS011;843;52.054;8.552;2022-12-08T12:31:18;7.10;;;5.77;;
1691;SDS011;843;52.054;8.552;2022-12-08T12:33:48;8.50;;;6.03;;
1691;SDS011;843;52.054;8.552;2022-12-08T12:36:16;8.40;;;5.53;;
1691;SDS011;843;52.054;8.552;2022-12-08T12:38:44;7.03;;;6.00;;
1691;SDS011;843;52.054;8.552;2022-12-08T12:41:30;9.30;;;5.73;;
1691;SDS011;843;52.054;8.552;2022-12-08T12:44:06;6.53;;;5.00;;
1691;SDS011;843;52.054;8.552;2022-12-08T12:46:57;8.90;;;6.07;;
1691;SDS011;843;52.054;8.552;2022-12-08T12:55:19;6.03;;;5.43;;
1691;SDS011;843;52.054;8.552;2022-12-08T12:57:50;7.90;;;5.80;;
1691;SDS011;843;52.054;8.552;2022-12-08T13:00:18;7.77;;;5.60;;
1691;SDS011;843;52.054;8.552;2022-12-08T13:02:47;7.43;;;5.93;;
1691;SDS011;843;52.054;8.552;2022-12-08T13:05:15;7.50;;;5.97;;
1691;SDS011;843;52.054;8.552;2022-12-08T13:07:44;10.63;;;6.27;;
1691;SDS011;843;52.054;8.552;2022-12-08T13:10:16;5.57;;;5.00;;
1691;SDS011;843;52.054;8.552;2022-12-08T13:12:44;6.00;;;4.97;;
1691;SDS011;843;52.054;8.552;2022-12-08T13:15:15;7.90;;;6.50;;
1691;SDS011;843;52.054;8.552;2022-12-08T13:17:44;11.70;;;6.57;;
1691;SDS011;843;52.054;8.552;2022-12-08T13:20:18;6.70;;;5.73;;
1691;SDS011;843;52.054;8.552;2022-12-08T13:22:48;7.13;;;5.50;;
1691;SDS011;843;52.054;8.552;2022-12-08T13:28:22;8.43;;;7.17;;
1691;SDS011;843;52.054;8.552;2022-12-08T13:30:50;8.00;;;5.87;;
1691;SDS011;843;52.054;8.552;2022-12-08T13:33:20;11.17;;;7.53;;
1691;SDS011;843;52.054;8.552;2022-12-08T13:35:52;8.90;;;6.73;;
1691;SDS011;843;52.054;8.552;2022-12-08T13:38:32;9.10;;;6.83;;
1691;SDS011;843;52.054;8.552;2022-12-08T13:41:02;8.60;;;7.07;;
1691;SDS011;843;52.054;8.552;2022-12-08T13:43:33;9.17;;;7.53;;
1691;SDS011;843;52.054;8.552;2022-12-08T13:46:03;11.17;;;8.17;;
1691;SDS011;843;52.054;8.552;2022-12-08T13:48:34;9.77;;;7.70;;
1691;SDS011;843;52.054;8.552;2022-12-08T13:51:08;8.70;;;7.20;;
1691;SDS011;843;52.054;8.552;2022-12-08T13:53:40;8.73;;;6.53;;
1691;SDS011;843;52.054;8.552;2022-12-08T13:56:09;9.30;;;7.70;;
1691;SDS011;843;52.054;8.552;2022-12-08T13:58:36;9.37;;;7.77;;
1691;SDS011;843;52.054;8.552;2022-12-08T14:01:04;10.50;;;6.53;;
1691;SDS011;843;52.054;8.552;2022-12-08T14:03:33;10.03;;;7.30;;
1691;SDS011;843;52.054;8.552;2022-12-08T14:06:13;8.60;;;7.00;;
1691;SDS011;843;52.054;8.552;2022-12-08T14:08:40;9.97;;;7.20;;
1691;SDS011;843;52.054;8.552;2022-12-08T14:11:08;7.67;;;6.20;;
1691;SDS011;843;52.054;8.552;2022-12-08T14:13:57;9.10;;;7.60;;
1691;SDS011;843;52.054;8.552;2022-12-08T14:16:25;7.57;;;6.77;;
1691;SDS011;843;52.054;8.552;2022-12-08T14:18:53;9.40;;;6.23;;
1691;SDS011;843;52.054;8.552;2022-12-08T14:21:21;8.47;;;6.47;;
1691;SDS011;843;52.054;8.552;2022-12-08T14:23:48;9.50;;;6.90;;
1691;SDS011;843;52.054;8.552;2022-12-08T14:26:15;8.33;;;6.43;;
1691;SDS011;843;52.054;8.552;2022-12-08T14:28:42;7.70;;;6.23;;
1691;SDS011;843;52.054;8.552;2022-12-08T14:31:09;9.13;;;7.07;;
1691;SDS011;843;52.054;8.552;2022-12-08T14:33:39;9.37;;;6.50;;
1691;SDS011;843;52.054;8.552;2022-12-08T14:36:08;10.50;;;6.60;;
1691;SDS011;843;52.054;8.552;2022-12-08T14:38:37;13.00;;;7.00;;
1691;SDS011;843;52.054;8.552;2022-12-08T14:41:05;7.83;;;7.00;;
1691;SDS011;843;52.054;8.552;2022-12-08T14:43:33;9.43;;;7.37;;
1691;SDS011;843;52.054;8.552;2022-12-08T14:46:00;7.23;;;6.13;;
1691;SDS011;843;52.054;8.552;2022-12-08T14:48:38;9.53;;;6.53;;
1691;SDS011;843;52.054;8.552;2022-12-08T14:51:10;9.27;;;7.70;;
1691;SDS011;843;52.054;8.552;2022-12-08T14:53:42;8.63;;;7.00;;
1691;SDS011;843;52.054;8.552;2022-12-08T14:56:14;9.10;;;7.03;;
1691;SDS011;843;52.054;8.552;2022-12-08T14:58:44;8.80;;;6.40;;
1691;SDS011;843;52.054;8.552;2022-12-08T15:01:12;8.20;;;6.73;;
1691;SDS011;843;52.054;8.552;2022-12-08T15:03:40;8.80;;;7.00;;
1691;SDS011;843;52.054;8.552;2022-12-08T15:06:07;7.67;;;6.27;;
1691;SDS011;843;52.054;8.552;2022-12-08T15:08:49;8.37;;;7.33;;
1691;SDS011;843;52.054;8.552;2022-12-08T15:11:25;9.20;;;6.33;;
1691;SDS011;843;52.054;8.552;2022-12-08T15:13:55;11.03;;;7.37;;
1691;SDS011;843;52.054;8.552;2022-12-08T15:16:23;8.27;;;7.37;;
1691;SDS011;843;52.054;8.552;2022-12-08T15:19:00;8.87;;;6.90;;
1691;SDS011;843;52.054;8.552;2022-12-08T15:21:28;10.30;;;7.63;;
1691;SDS011;843;52.054;8.552;2022-12-08T15:23:57;11.70;;;7.37;;
1691;SDS011;843;52.054;8.552;2022-12-08T15:26:24;10.40;;;7.80;;
1691;SDS011;843;52.054;8.552;2022-12-08T15:28:52;8.37;;;7.03;;
1691;SDS011;843;52.054;8.552;2022-12-08T15:31:20;9.67;;;7.40;;
1691;SDS011;843;52.054;8.552;2022-12-08T15:33:46;9.10;;;7.23;;